createdAt,value
2023-08-23T00:00:14.501Z,28.90
2023-08-23T00:02:41.831Z,28.90
2023-08-23T00:05:09.982Z,29.00
2023-08-23T00:07:37.522Z,29.00
2023-08-23T00:10:05.248Z,29.00
2023-08-23T00:12:32.450Z,28.90
2023-08-23T00:14:59.978Z,28.70
2023-08-23T00:17:27.097Z,28.60
2023-08-23T00:19:55.640Z,28.60
2023-08-23T00:22:22.737Z,28.80
2023-08-23T00:24:49.897Z,28.90
2023-08-23T00:27:16.998Z,28.90
2023-08-23T00:29:44.187Z,29.00
2023-08-23T00:32:11.340Z,29.00
2023-08-23T00:34:38.416Z,29.10
2023-08-23T00:37:05.732Z,29.10
2023-08-23T00:39:32.894Z,29.10
2023-08-23T00:41:59.952Z,29.10
2023-08-23T00:44:27.117Z,29.10
2023-08-23T00:46:54.211Z,29.10
2023-08-23T00:49:22.683Z,29.00
2023-08-23T00:51:51.739Z,29.00
2023-08-23T00:54:19.253Z,29.00
2023-08-23T00:56:47.690Z,29.00
2023-08-23T00:59:16.226Z,29.00
2023-08-23T01:01:43.501Z,28.90
2023-08-23T01:04:10.627Z,28.90
2023-08-23T01:07:15.041Z,28.90
2023-08-23T01:09:47.857Z,28.80
2023-08-23T01:12:26.927Z,28.70
2023-08-23T01:15:15.297Z,28.60
2023-08-23T01:17:44.862Z,28.60
2023-08-23T01:20:14.707Z,28.50
2023-08-23T01:22:55.057Z,28.50
2023-08-23T01:25:22.566Z,28.20
2023-08-23T01:30:20.222Z,27.70
2023-08-23T01:33:02.033Z,27.40
2023-08-23T01:35:37.198Z,27.20
2023-08-23T01:38:05.561Z,27.10
2023-08-23T01:40:33.396Z,27.00
2023-08-23T01:43:00.509Z,26.80
2023-08-23T01:45:27.392Z,26.70
2023-08-23T01:47:54.358Z,26.60
2023-08-23T01:50:21.471Z,26.60
2023-08-23T01:52:48.433Z,26.50
2023-08-23T01:55:18.953Z,26.40
2023-08-23T01:57:46.791Z,26.40
2023-08-23T02:00:14.329Z,26.40
2023-08-23T02:02:41.444Z,26.30
2023-08-23T02:05:08.700Z,26.30
2023-08-23T02:07:35.684Z,26.30
2023-08-23T02:10:02.655Z,26.20
2023-08-23T02:12:29.634Z,26.20
2023-08-23T02:14:56.571Z,26.20
2023-08-23T02:17:23.671Z,26.10
2023-08-23T02:19:50.677Z,26.00
2023-08-23T02:22:17.640Z,26.00
2023-08-23T02:24:44.645Z,26.00
2023-08-23T02:27:11.589Z,25.90
2023-08-23T02:29:38.513Z,25.90
2023-08-23T02:32:05.783Z,25.80
2023-08-23T02:34:32.696Z,25.80
2023-08-23T02:36:59.632Z,25.70
2023-08-23T02:39:26.639Z,25.70
2023-08-23T02:41:53.645Z,25.70
2023-08-23T02:44:20.620Z,25.70
2023-08-23T02:46:47.588Z,25.70
2023-08-23T02:49:14.501Z,25.70
2023-08-23T02:51:41.380Z,25.70
2023-08-23T02:54:08.290Z,25.70
2023-08-23T02:56:35.252Z,25.60
2023-08-23T02:59:02.236Z,25.60
2023-08-23T03:01:29.376Z,25.60
2023-08-23T03:03:56.293Z,25.60
2023-08-23T03:06:23.205Z,25.50
2023-08-23T03:08:50.191Z,25.50
2023-08-23T03:11:17.150Z,25.50
2023-08-23T03:13:44.060Z,25.50
2023-08-23T03:16:10.972Z,25.40
2023-08-23T03:18:37.982Z,25.30
2023-08-23T03:21:05.036Z,25.30
2023-08-23T03:23:32.056Z,25.30
2023-08-23T03:25:59.051Z,25.20
2023-08-23T03:28:26.015Z,25.20
2023-08-23T03:30:53.001Z,25.20
2023-08-23T03:33:20.020Z,25.10
2023-08-23T03:35:53.562Z,25.10
2023-08-23T03:38:20.541Z,25.10
2023-08-23T03:40:47.518Z,25.10
2023-08-23T03:43:14.454Z,25.10
2023-08-23T03:45:51.398Z,25.00
2023-08-23T03:48:18.843Z,25.00
2023-08-23T03:50:46.106Z,25.00
2023-08-23T03:53:13.034Z,24.90
2023-08-23T03:55:39.930Z,24.90
2023-08-23T03:58:07.485Z,24.90
2023-08-23T04:00:34.465Z,24.90
2023-08-23T04:03:02.614Z,24.90
2023-08-23T04:05:29.706Z,24.90
2023-08-23T04:07:56.714Z,24.90
2023-08-23T04:10:23.821Z,24.90
2023-08-23T04:12:50.759Z,24.90
2023-08-23T04:15:19.164Z,24.90
2023-08-23T04:17:46.520Z,24.90
2023-08-23T04:20:15.019Z,24.90
2023-08-23T04:22:41.951Z,24.90
2023-08-23T04:25:09.575Z,24.90
2023-08-23T04:27:36.534Z,24.90
2023-08-23T04:30:07.286Z,24.90
2023-08-23T04:32:34.273Z,24.90
2023-08-23T04:35:01.196Z,25.00
2023-08-23T04:37:28.143Z,24.90
2023-08-23T04:39:55.153Z,25.00
2023-08-23T04:42:22.083Z,25.10
2023-08-23T04:44:49.183Z,25.10
2023-08-23T04:47:16.392Z,25.20
2023-08-23T04:49:44.322Z,25.20
2023-08-23T04:52:11.270Z,25.20
2023-08-23T04:54:38.208Z,25.30
2023-08-23T04:57:05.552Z,25.40
2023-08-23T04:59:33.001Z,25.40
2023-08-23T05:01:59.994Z,25.50
2023-08-23T05:04:26.988Z,25.50
2023-08-23T05:06:53.970Z,25.60
2023-08-23T05:09:20.929Z,25.60
2023-08-23T05:11:48.019Z,25.60
2023-08-23T05:14:15.017Z,25.70
2023-08-23T05:16:42.289Z,25.60
2023-08-23T05:19:17.131Z,25.70
2023-08-23T05:21:45.039Z,25.70
2023-08-23T05:24:14.345Z,25.70
2023-08-23T05:26:41.332Z,25.70
2023-08-23T05:29:08.289Z,25.80
2023-08-23T05:31:35.296Z,25.80
2023-08-23T05:34:02.246Z,25.90
2023-08-23T05:36:31.041Z,25.90
2023-08-23T05:38:58.006Z,26.00
2023-08-23T05:41:24.974Z,25.90
2023-08-23T05:43:52.168Z,26.00
2023-08-23T05:46:19.132Z,26.00
2023-08-23T05:48:46.212Z,26.00
2023-08-23T05:51:13.174Z,26.10
2023-08-23T05:53:40.137Z,26.10
2023-08-23T05:56:07.046Z,26.20
2023-08-23T05:58:34.119Z,26.20
2023-08-23T06:01:01.069Z,26.20
2023-08-23T06:03:28.098Z,26.30
2023-08-23T06:05:58.365Z,26.20
2023-08-23T06:08:25.348Z,26.20
2023-08-23T06:10:52.730Z,26.30
2023-08-23T06:13:20.041Z,26.30
2023-08-23T06:15:47.017Z,26.40
2023-08-23T06:18:14.406Z,26.40
2023-08-23T06:20:44.409Z,26.50
2023-08-23T06:23:11.438Z,26.60
2023-08-23T06:25:38.679Z,26.70
2023-08-23T06:28:06.015Z,26.70
2023-08-23T06:30:33.020Z,26.80
2023-08-23T06:33:02.885Z,26.90
2023-08-23T06:35:30.436Z,27.00
2023-08-23T06:37:57.328Z,27.00
2023-08-23T06:40:25.752Z,27.10
2023-08-23T06:42:52.684Z,27.20
2023-08-23T06:45:19.586Z,27.30
2023-08-23T06:47:47.251Z,27.50
2023-08-23T06:50:16.766Z,27.60
2023-08-23T06:52:44.083Z,27.70
2023-08-23T06:55:11.071Z,27.90
2023-08-23T06:57:38.021Z,27.90
2023-08-23T07:00:05.520Z,28.00
2023-08-23T07:02:32.612Z,28.10
2023-08-23T07:04:59.671Z,28.10
2023-08-23T07:07:26.693Z,28.20
2023-08-23T07:09:53.711Z,28.20
2023-08-23T07:12:20.684Z,28.10
2023-08-23T07:14:50.457Z,28.10
2023-08-23T07:17:17.723Z,28.10
2023-08-23T07:19:45.010Z,28.20
2023-08-23T07:22:12.502Z,28.20
2023-08-23T07:24:39.569Z,28.40
2023-08-23T07:27:07.008Z,28.40
2023-08-23T07:29:37.101Z,28.40
2023-08-23T07:32:05.351Z,28.40
2023-08-23T07:34:35.586Z,28.50
2023-08-23T07:37:02.550Z,28.60
2023-08-23T07:39:29.650Z,28.60
2023-08-23T07:41:56.639Z,28.70
2023-08-23T07:44:25.734Z,28.80
2023-08-23T07:47:16.232Z,28.90
2023-08-23T07:49:47.140Z,29.00
2023-08-23T07:52:15.452Z,29.20
2023-08-23T07:54:53.279Z,29.30
2023-08-23T07:57:20.357Z,29.30
2023-08-23T07:59:47.362Z,29.30
2023-08-23T08:02:14.381Z,29.30
2023-08-23T08:04:41.386Z,29.30
2023-08-23T08:07:09.706Z,29.30
2023-08-23T08:09:36.671Z,29.30
2023-08-23T08:12:03.834Z,29.30
2023-08-23T08:14:30.806Z,29.50
2023-08-23T08:16:57.782Z,29.50
2023-08-23T08:19:27.602Z,29.60
2023-08-23T08:21:55.155Z,29.60
2023-08-23T08:24:22.050Z,29.60
2023-08-23T08:26:49.156Z,29.60
2023-08-23T08:29:16.164Z,29.70
2023-08-23T08:31:43.442Z,29.60
2023-08-23T08:34:10.643Z,29.60
2023-08-23T08:36:37.585Z,29.60
2023-08-23T08:39:04.612Z,29.80
2023-08-23T08:41:31.687Z,29.90
2023-08-23T08:44:00.365Z,29.90
2023-08-23T08:46:27.875Z,29.90
2023-08-23T08:48:54.915Z,30.00
2023-08-23T08:54:29.605Z,29.90
2023-08-23T08:56:58.552Z,29.80
2023-08-23T08:59:26.017Z,29.80
2023-08-23T09:01:55.540Z,29.80
2023-08-23T09:04:22.656Z,29.90
2023-08-23T09:06:50.220Z,30.00
2023-08-23T09:09:17.604Z,29.90
2023-08-23T09:11:51.279Z,29.90
2023-08-23T09:14:20.617Z,29.90
2023-08-23T09:16:48.341Z,30.10
2023-08-23T09:19:15.692Z,30.10
2023-08-23T09:21:57.047Z,30.10
2023-08-23T09:24:24.319Z,30.20
2023-08-23T09:26:51.340Z,30.30
2023-08-23T09:29:18.306Z,30.30
2023-08-23T09:31:45.300Z,30.30
2023-08-23T09:34:16.646Z,30.20
2023-08-23T09:36:48.232Z,30.30
2023-08-23T09:39:18.896Z,30.40
2023-08-23T09:44:16.587Z,30.80
2023-08-23T09:46:46.545Z,30.80
2023-08-23T09:49:17.836Z,30.80
2023-08-23T09:51:49.433Z,30.80
2023-08-23T09:54:41.455Z,30.90
2023-08-23T09:57:15.358Z,31.00
2023-08-23T09:59:44.517Z,31.00
2023-08-23T10:02:12.226Z,31.00
2023-08-23T10:04:43.420Z,31.00
2023-08-23T10:07:12.438Z,31.00
2023-08-23T10:09:40.743Z,31.00
2023-08-23T10:12:09.954Z,30.90
2023-08-23T10:14:45.290Z,30.80
2023-08-23T10:17:24.597Z,30.70
2023-08-23T10:19:56.415Z,30.80
2023-08-23T10:22:25.411Z,30.80
2023-08-23T10:24:52.365Z,30.80
2023-08-23T10:27:19.431Z,30.80
2023-08-23T10:30:00.320Z,30.90
2023-08-23T10:32:46.820Z,31.00
2023-08-23T10:35:22.556Z,31.10
2023-08-23T10:38:05.383Z,31.00
2023-08-23T10:40:34.742Z,31.00
2023-08-23T10:43:11.668Z,31.00
2023-08-23T10:45:54.056Z,31.00
2023-08-23T10:48:22.839Z,31.20
2023-08-23T10:50:50.690Z,31.30
2023-08-23T10:53:18.443Z,31.20
2023-08-23T10:55:46.260Z,31.10
2023-08-23T10:58:14.522Z,31.20
2023-08-23T11:00:46.768Z,31.20
2023-08-23T11:03:14.351Z,31.10
2023-08-23T11:05:41.415Z,31.10
2023-08-23T11:08:08.500Z,31.20
2023-08-23T11:10:38.221Z,31.20
2023-08-23T11:13:06.465Z,31.20
2023-08-23T11:15:34.782Z,31.40
2023-08-23T11:18:02.840Z,31.40
2023-08-23T11:20:29.970Z,31.40
2023-08-23T11:22:57.133Z,31.50
2023-08-23T11:25:24.334Z,31.60
2023-08-23T11:27:52.944Z,31.70
2023-08-23T11:30:24.054Z,31.70
2023-08-23T11:32:51.273Z,31.70
2023-08-23T11:35:21.625Z,31.80
2023-08-23T11:37:51.186Z,31.80
2023-08-23T11:40:18.628Z,32.10
2023-08-23T11:42:47.424Z,32.40
2023-08-23T11:45:14.433Z,32.80
2023-08-23T11:47:42.343Z,33.10
2023-08-23T11:50:10.483Z,33.50
2023-08-23T11:52:38.141Z,33.80
2023-08-23T11:55:06.220Z,33.90
2023-08-23T11:57:36.995Z,33.90
2023-08-23T12:00:04.862Z,33.80
2023-08-23T12:02:32.085Z,33.90
2023-08-23T12:05:14.187Z,33.80
2023-08-23T12:07:41.299Z,33.70
2023-08-23T12:10:22.150Z,33.70
2023-08-23T12:12:51.880Z,33.80
2023-08-23T12:15:20.497Z,33.70
2023-08-23T12:17:47.781Z,33.70
2023-08-23T12:20:15.130Z,33.90
2023-08-23T12:22:51.462Z,34.00
2023-08-23T12:25:18.626Z,34.10
2023-08-23T12:27:46.028Z,34.20
2023-08-23T12:30:15.152Z,34.20
2023-08-23T12:32:42.268Z,34.30
2023-08-23T12:35:12.621Z,34.30
2023-08-23T12:37:40.142Z,34.10
2023-08-23T12:40:11.103Z,34.10
2023-08-23T12:42:41.074Z,34.10
2023-08-23T12:45:11.687Z,34.20
2023-08-23T12:47:38.788Z,34.20
2023-08-23T12:50:06.821Z,34.20
2023-08-23T12:52:34.047Z,34.30
2023-08-23T12:55:01.111Z,34.20
2023-08-23T12:57:29.824Z,34.30
2023-08-23T12:59:56.958Z,34.30
2023-08-23T13:02:24.232Z,34.20
2023-08-23T13:04:51.433Z,34.30
2023-08-23T13:07:18.774Z,34.30
2023-08-23T13:09:45.955Z,34.30
2023-08-23T13:12:13.467Z,34.40
2023-08-23T13:14:40.735Z,34.50
2023-08-23T13:17:08.175Z,34.50
2023-08-23T13:19:35.222Z,34.50
2023-08-23T13:22:02.431Z,34.50
2023-08-23T13:24:29.502Z,34.40
2023-08-23T13:26:56.605Z,34.20
2023-08-23T13:29:23.787Z,34.10
2023-08-23T13:31:51.080Z,34.10
2023-08-23T13:34:18.371Z,34.10
2023-08-23T13:36:45.788Z,34.00
2023-08-23T13:39:13.003Z,34.20
2023-08-23T13:41:40.440Z,34.30
2023-08-23T13:44:07.700Z,34.50
2023-08-23T13:46:34.876Z,34.60
2023-08-23T13:49:02.012Z,34.60
2023-08-23T13:51:29.100Z,34.60
2023-08-23T13:53:56.293Z,34.60
2023-08-23T13:56:23.370Z,34.60
2023-08-23T13:58:50.412Z,34.60
2023-08-23T14:01:17.560Z,34.60
2023-08-23T14:03:44.716Z,34.60
2023-08-23T14:06:11.818Z,34.70
2023-08-23T14:08:38.886Z,34.60
2023-08-23T14:11:06.019Z,34.60
2023-08-23T14:13:33.139Z,34.50
2023-08-23T14:16:00.280Z,34.50
2023-08-23T14:18:27.780Z,34.40
2023-08-23T14:20:55.230Z,34.30
2023-08-23T14:23:22.390Z,34.30
2023-08-23T14:25:49.500Z,34.40
2023-08-23T14:28:16.645Z,34.50
2023-08-23T14:30:45.609Z,34.50
2023-08-23T14:33:13.042Z,34.50
2023-08-23T14:35:43.975Z,34.50
2023-08-23T14:38:11.050Z,34.50
2023-08-23T14:40:38.253Z,34.50
2023-08-23T14:43:05.952Z,34.40
2023-08-23T14:45:33.095Z,34.40
2023-08-23T14:48:00.381Z,34.40
2023-08-23T14:50:27.490Z,34.30
2023-08-23T14:52:54.631Z,34.30
2023-08-23T14:55:21.844Z,34.30
2023-08-23T14:57:49.353Z,34.30
2023-08-23T15:00:17.631Z,34.40
2023-08-23T15:02:44.787Z,34.40
2023-08-23T15:05:11.928Z,34.40
2023-08-23T15:07:38.963Z,34.40
2023-08-23T15:10:06.759Z,34.50
2023-08-23T15:12:34.029Z,34.50
2023-08-23T15:15:01.126Z,34.60
2023-08-23T15:17:28.348Z,34.60
2023-08-23T15:19:55.662Z,34.50
2023-08-23T15:22:23.494Z,34.40
2023-08-23T15:24:50.588Z,34.30
2023-08-23T15:27:19.663Z,34.20
2023-08-23T15:30:01.372Z,34.10
2023-08-23T15:32:39.455Z,34.00
2023-08-23T15:35:07.352Z,33.90
2023-08-23T15:37:36.067Z,33.90
2023-08-23T15:40:06.112Z,33.90
2023-08-23T15:42:33.554Z,33.80
2023-08-23T15:45:01.033Z,33.70
2023-08-23T15:47:28.268Z,33.60
2023-08-23T15:49:55.521Z,33.50
2023-08-23T15:52:22.763Z,33.40
2023-08-23T15:54:50.379Z,33.30
2023-08-23T15:57:20.165Z,33.30
2023-08-23T15:59:47.722Z,33.20
2023-08-23T16:02:19.405Z,33.20
2023-08-23T16:04:46.568Z,33.20
2023-08-23T16:07:13.801Z,33.20
2023-08-23T16:09:40.992Z,33.40
2023-08-23T16:12:08.445Z,33.60
2023-08-23T16:14:35.536Z,34.20
2023-08-23T16:17:02.714Z,34.80
2023-08-23T16:19:32.338Z,35.40
2023-08-23T16:21:59.426Z,35.40
2023-08-23T16:24:26.516Z,35.10
2023-08-23T16:26:54.376Z,34.90
2023-08-23T16:29:21.415Z,34.70
2023-08-23T16:31:48.637Z,34.50
2023-08-23T16:34:17.103Z,34.40
2023-08-23T16:36:44.553Z,34.20
2023-08-23T16:39:12.802Z,34.10
2023-08-23T16:41:40.001Z,33.90
2023-08-23T16:44:07.080Z,33.80
2023-08-23T16:46:35.420Z,33.70
2023-08-23T16:49:02.541Z,33.60
2023-08-23T16:51:29.596Z,33.50
2023-08-23T16:53:56.743Z,33.40
2023-08-23T16:56:25.848Z,33.30
2023-08-23T16:58:53.641Z,33.20
2023-08-23T17:01:20.954Z,33.20
2023-08-23T17:03:48.800Z,33.10
2023-08-23T17:06:16.563Z,33.10
2023-08-23T17:08:43.878Z,33.00
2023-08-23T17:11:10.979Z,32.90
2023-08-23T17:13:38.101Z,32.80
2023-08-23T17:16:05.438Z,32.70
2023-08-23T17:18:32.614Z,32.60
2023-08-23T17:21:01.367Z,32.60
2023-08-23T17:23:28.826Z,32.50
2023-08-23T17:25:59.137Z,32.30
2023-08-23T17:28:26.256Z,32.30
2023-08-23T17:30:53.500Z,32.20
2023-08-23T17:33:21.686Z,32.10
2023-08-23T17:35:49.121Z,32.10
2023-08-23T17:38:16.530Z,31.90
2023-08-23T17:40:43.655Z,31.80
2023-08-23T17:43:10.770Z,31.80
2023-08-23T17:45:38.843Z,31.70
2023-08-23T17:48:06.366Z,31.70
2023-08-23T17:50:34.217Z,31.60
2023-08-23T17:53:02.557Z,31.50
2023-08-23T17:55:29.760Z,31.40
2023-08-23T17:57:57.570Z,31.30
2023-08-23T18:00:24.714Z,31.30
2023-08-23T18:02:52.467Z,31.20
2023-08-23T18:05:19.854Z,31.10
2023-08-23T18:07:48.577Z,31.00
2023-08-23T18:10:15.741Z,30.80
2023-08-23T18:12:42.922Z,30.50
2023-08-23T18:15:10.702Z,30.30
2023-08-23T18:17:37.741Z,30.20
2023-08-23T18:20:05.879Z,30.00
2023-08-23T18:22:32.848Z,29.80
2023-08-23T18:24:59.962Z,29.70
2023-08-23T18:27:27.205Z,29.50
2023-08-23T18:29:54.297Z,29.40
2023-08-23T18:32:21.378Z,29.30
2023-08-23T18:34:48.408Z,29.20
2023-08-23T18:37:16.376Z,29.20
2023-08-23T18:39:43.546Z,29.10
2023-08-23T18:42:11.546Z,29.00
2023-08-23T18:44:39.248Z,29.00
2023-08-23T18:47:07.429Z,28.90
2023-08-23T18:49:35.812Z,28.80
2023-08-23T18:52:03.169Z,28.80
2023-08-23T18:54:30.554Z,28.70
2023-08-23T18:56:57.681Z,28.60
2023-08-23T18:59:24.823Z,28.60
2023-08-23T19:01:51.968Z,28.60
2023-08-23T19:04:19.064Z,28.50
2023-08-23T19:06:46.146Z,28.50
2023-08-23T19:09:13.405Z,28.50
2023-08-23T19:11:40.558Z,28.50
2023-08-23T19:14:08.471Z,28.50
2023-08-23T19:16:35.832Z,28.40
2023-08-23T19:19:03.878Z,28.40
2023-08-23T19:21:30.983Z,28.40
2023-08-23T19:23:58.096Z,28.40
2023-08-23T19:26:25.290Z,28.40
2023-08-23T19:28:52.585Z,28.30
2023-08-23T19:31:19.686Z,28.30
2023-08-23T19:33:46.790Z,28.30
2023-08-23T19:36:13.845Z,28.30
2023-08-23T19:38:41.048Z,28.30
2023-08-23T19:41:08.072Z,28.30
2023-08-23T19:43:35.126Z,28.30
2023-08-23T19:46:02.262Z,28.30
2023-08-23T19:48:33.381Z,28.30
2023-08-23T19:51:04.354Z,28.30
2023-08-23T19:53:32.230Z,28.30
2023-08-23T19:56:06.085Z,28.20
2023-08-23T19:58:36.347Z,28.20
2023-08-23T20:01:04.159Z,28.20
2023-08-23T20:03:31.809Z,28.20
2023-08-23T20:05:59.357Z,28.20
2023-08-23T20:08:26.518Z,28.20
2023-08-23T20:10:54.326Z,28.10
2023-08-23T20:13:21.365Z,28.10
2023-08-23T20:15:48.657Z,28.10
2023-08-23T20:18:16.654Z,28.00
2023-08-23T20:20:44.006Z,28.00
2023-08-23T20:23:11.439Z,27.90
2023-08-23T20:25:38.772Z,27.90
2023-08-23T20:28:06.204Z,27.90
2023-08-23T20:30:33.404Z,27.80
2023-08-23T20:33:00.584Z,27.80
2023-08-23T20:35:29.461Z,27.80
2023-08-23T20:37:56.451Z,27.70
2023-08-23T20:40:23.408Z,27.70
2023-08-23T20:42:50.716Z,27.70
2023-08-23T20:45:18.035Z,27.60
2023-08-23T20:47:45.373Z,27.50
2023-08-23T20:50:12.402Z,27.50
2023-08-23T20:52:39.383Z,27.40
2023-08-23T20:55:06.836Z,27.40
2023-08-23T20:57:33.846Z,27.40
2023-08-23T21:00:01.634Z,27.30
2023-08-23T21:02:28.540Z,27.30
2023-08-23T21:04:55.636Z,27.30
2023-08-23T21:07:22.785Z,27.30
2023-08-23T21:09:49.781Z,27.30
2023-08-23T21:12:16.846Z,27.20
2023-08-23T21:14:43.842Z,27.20
2023-08-23T21:17:10.902Z,27.20
2023-08-23T21:19:38.044Z,27.20
2023-08-23T21:22:05.257Z,27.20
2023-08-23T21:24:32.392Z,27.20
2023-08-23T21:26:59.966Z,27.10
2023-08-23T21:29:27.083Z,27.20
2023-08-23T21:31:54.032Z,27.20
2023-08-23T21:34:21.028Z,27.20
2023-08-23T21:36:48.124Z,27.20
2023-08-23T21:39:16.183Z,27.20
2023-08-23T21:41:43.271Z,27.20
2023-08-23T21:44:10.188Z,27.20
2023-08-23T21:46:37.273Z,27.20
2023-08-23T21:49:05.504Z,27.30
2023-08-23T21:51:32.569Z,27.30
2023-08-23T21:53:59.605Z,27.20
2023-08-23T21:56:26.613Z,27.20
2023-08-23T21:58:53.693Z,27.20
2023-08-23T22:01:20.695Z,27.20
2023-08-23T22:03:47.657Z,27.10
2023-08-23T22:06:14.805Z,27.10
2023-08-23T22:08:45.483Z,27.00
2023-08-23T22:11:16.900Z,27.00
2023-08-23T22:13:47.130Z,26.90
2023-08-23T22:16:14.468Z,27.00
2023-08-23T22:18:42.045Z,26.90
2023-08-23T22:21:10.297Z,26.90
2023-08-23T22:23:37.739Z,26.80
2023-08-23T22:26:05.328Z,26.80
2023-08-23T22:28:33.292Z,26.80
2023-08-23T22:31:00.882Z,26.70
2023-08-23T22:33:28.689Z,26.70
2023-08-23T22:35:57.915Z,26.70
2023-08-23T22:38:25.705Z,26.60
2023-08-23T22:40:53.060Z,26.60
2023-08-23T22:43:20.211Z,26.60
2023-08-23T22:45:47.360Z,26.60
2023-08-23T22:48:14.501Z,26.60
2023-08-23T22:50:41.664Z,26.60
2023-08-23T22:53:08.702Z,26.50
2023-08-23T22:55:38.720Z,26.50
2023-08-23T22:58:06.572Z,26.50
2023-08-23T23:00:33.576Z,26.50
2023-08-23T23:03:00.696Z,26.50
2023-08-23T23:05:27.849Z,26.50
2023-08-23T23:07:55.155Z,26.40
2023-08-23T23:10:22.785Z,26.40
2023-08-23T23:12:50.089Z,26.40
2023-08-23T23:15:17.148Z,26.40
2023-08-23T23:17:45.546Z,26.30
2023-08-23T23:20:16.620Z,26.30
2023-08-23T23:22:43.792Z,26.30
2023-08-23T23:25:11.954Z,26.20
2023-08-23T23:27:39.070Z,26.20
2023-08-23T23:30:07.184Z,26.20
2023-08-23T23:32:35.081Z,26.20
2023-08-23T23:35:02.645Z,26.20
2023-08-23T23:37:29.692Z,26.10
2023-08-23T23:39:58.444Z,26.10
2023-08-23T23:42:25.969Z,26.10
2023-08-23T23:44:53.458Z,26.00
2023-08-23T23:47:20.442Z,26.00
2023-08-23T23:49:47.464Z,26.00
2023-08-23T23:52:14.536Z,26.00
2023-08-23T23:54:41.444Z,26.00
2023-08-23T23:57:08.373Z,26.00
2023-08-23T23:59:36.115Z,25.90
